Time;durP1;ratioP1;P1;durP2;ratioP2;P2;SDS_P1;SDS_P2;PMS_P1;PMS_P2;Temp;Humidity;BMP_temperature;BMP_pressure;BME280_temperature;BME280_humidity;BME280_pressure;Samples;Min_cycle;Max_cycle;Signal;HPM_P1;HPM_P2
2022/04/13 00:01:43;;;;;;;11.75;7.10;;;13.30;99.90;;;;;;5017737;28;20056;-81
2022/04/13 00:04:09;;;;;;;7.85;6.85;;;12.70;99.90;;;;;;5030490;28;20045;-80
2022/04/13 00:06:38;;;;;;;11.82;6.70;;;12.80;99.90;;;;;;5030789;28;20041;-81
2022/04/13 00:09:10;;;;;;;7.88;6.43;;;12.70;99.90;;;;;;5031245;28;20455;-81
2022/04/13 00:11:36;;;;;;;15.82;7.32;;;12.70;99.90;;;;;;5032909;28;20408;-80
2022/04/13 00:14:03;;;;;;;10.10;6.82;;;12.70;99.90;;;;;;5015858;28;20520;-81
2022/04/13 00:16:29;;;;;;;13.57;7.40;;;12.70;99.90;;;;;;5018820;28;20041;-81
2022/04/13 00:18:55;;;;;;;14.00;7.30;;;12.60;99.90;;;;;;5028750;28;20061;-81
2022/04/13 00:21:21;;;;;;;10.32;7.13;;;12.70;99.90;;;;;;5014955;28;20119;-81
2022/04/13 00:23:47;;;;;;;10.73;6.82;;;12.60;99.90;;;;;;5029921;28;20484;-81
2022/04/13 00:26:13;;;;;;;12.05;7.53;;;12.60;99.90;;;;;;5013917;28;20164;-81
2022/04/13 00:28:38;;;;;;;10.98;6.93;;;12.60;99.90;;;;;;5013719;28;20037;-81
2022/04/13 00:31:04;;;;;;;9.48;6.40;;;13.00;99.90;;;;;;5014103;28;20049;-81
2022/04/13 00:33:32;;;;;;;12.73;7.10;;;12.50;99.90;;;;;;5013746;28;20045;-81
2022/04/13 00:35:58;;;;;;;8.35;6.22;;;12.60;99.90;;;;;;5029307;28;20089;-79
2022/04/13 00:38:23;;;;;;;10.70;6.63;;;12.70;99.90;;;;;;5007566;28;20084;-80
2022/04/13 00:40:49;;;;;;;10.35;6.50;;;12.50;99.90;;;;;;5027603;28;20146;-80
2022/04/13 00:43:15;;;;;;;11.50;6.82;;;12.60;99.90;;;;;;5028429;28;20412;-80
2022/04/13 00:45:47;;;;;;;10.38;7.05;;;12.60;99.90;;;;;;5027410;28;20087;-80
2022/04/13 00:48:36;;;;;;;11.98;7.30;;;13.20;99.90;;;;;;5031074;28;20045;-81
2022/04/13 00:51:03;;;;;;;15.95;6.70;;;12.60;99.90;;;;;;5027494;28;20091;-81
2022/04/13 00:53:30;;;;;;;11.35;7.38;;;12.50;99.90;;;;;;5019620;28;20092;-80
2022/04/13 00:55:58;;;;;;;11.05;7.47;;;12.80;99.90;;;;;;5036095;28;20096;-81
2022/04/13 00:58:31;;;;;;;12.55;7.47;;;12.90;99.90;;;;;;5019005;28;20037;-81
2022/04/13 01:00:57;;;;;;;14.90;7.32;;;12.40;99.90;;;;;;5025243;28;20037;-80
2022/04/13 01:03:24;;;;;;;12.63;7.07;;;12.40;99.90;;;;;;5029885;28;20033;-80
2022/04/13 01:05:52;;;;;;;17.75;7.70;;;12.30;99.90;;;;;;5027477;28;20063;-80
2022/04/13 01:08:19;;;;;;;12.38;7.53;;;12.30;99.90;;;;;;5029258;28;20337;-80
2022/04/13 01:10:47;;;;;;;12.18;7.90;;;12.70;99.90;;;;;;5029495;28;20333;-81
2022/04/13 01:13:14;;;;;;;13.68;7.97;;;12.30;99.90;;;;;;5007624;28;20846;-81
2022/04/13 01:15:40;;;;;;;12.90;7.78;;;12.20;99.90;;;;;;5011966;28;20111;-81
2022/04/13 01:18:06;;;;;;;11.35;8.00;;;12.20;99.90;;;;;;5007605;28;20038;-80
2022/04/13 01:20:34;;;;;;;12.00;7.72;;;12.30;99.90;;;;;;5028125;28;20397;-80
2022/04/13 01:23:00;;;;;;;19.05;8.43;;;12.20;99.90;;;;;;5010627;28;20046;-80
2022/04/13 01:25:26;;;;;;;11.20;8.27;;;12.20;99.90;;;;;;5028583;28;20063;-81
2022/04/13 01:27:52;;;;;;;14.98;8.18;;;12.20;99.90;;;;;;5031579;28;20111;-80
2022/04/13 01:30:17;;;;;;;12.07;8.10;;;12.10;99.90;;;;;;5010482;28;20038;-80
2022/04/13 01:32:43;;;;;;;12.15;8.57;;;12.10;99.90;;;;;;5012485;28;20042;-80
2022/04/13 01:35:09;;;;;;;12.27;7.93;;;12.10;99.90;;;;;;5006158;28;20125;-80
2022/04/13 01:37:35;;;;;;;11.48;8.00;;;12.10;99.90;;;;;;5048815;28;20116;-81
2022/04/13 01:40:01;;;;;;;14.77;8.20;;;12.20;99.90;;;;;;5034229;28;20049;-81
2022/04/13 01:42:28;;;;;;;12.70;8.15;;;12.10;99.90;;;;;;5036114;28;20329;-81
2022/04/13 01:44:54;;;;;;;16.00;8.45;;;12.10;99.90;;;;;;5034734;28;20044;-81
2022/04/13 01:47:20;;;;;;;14.27;8.75;;;12.60;99.90;;;;;;5035600;28;20036;-81
2022/04/13 01:49:45;;;;;;;22.25;9.18;;;12.50;99.90;;;;;;5049016;28;20047;-81
2022/04/13 01:52:11;;;;;;;17.00;8.63;;;12.10;99.90;;;;;;5049483;28;20400;-81
2022/04/13 01:54:37;;;;;;;12.05;8.98;;;12.10;99.90;;;;;;5030037;28;20055;-81
2022/04/13 01:57:03;;;;;;;17.67;9.35;;;12.50;99.90;;;;;;5033318;28;20087;-80
2022/04/13 01:59:32;;;;;;;14.25;8.35;;;12.10;99.90;;;;;;5065453;28;20037;-80
2022/04/13 02:01:58;;;;;;;18.95;9.43;;;12.40;99.90;;;;;;5067882;28;20040;-80
2022/04/13 02:04:25;;;;;;;14.55;8.82;;;12.00;99.90;;;;;;5052709;28;20502;-81
2022/04/13 02:06:52;;;;;;;14.00;9.30;;;12.00;99.90;;;;;;5047700;28;20091;-80
2022/04/13 02:09:18;;;;;;;14.85;8.68;;;12.00;99.90;;;;;;5040098;28;20146;-80
2022/04/13 02:11:45;;;;;;;15.30;8.85;;;11.90;99.90;;;;;;5052030;28;20058;-81
2022/04/13 02:14:11;;;;;;;15.13;8.45;;;11.90;99.90;;;;;;5054175;28;20093;-81
2022/04/13 02:20:18;;;;;;;12.93;9.23;;;11.80;99.90;;;;;;5068203;28;20035;-81
2022/04/13 02:22:47;;;;;;;13.07;9.20;;;11.80;99.90;;;;;;5051498;28;20024;-81
2022/04/13 02:25:13;;;;;;;19.20;9.50;;;12.20;99.90;;;;;;5033762;28;20036;-81
2022/04/13 02:27:39;;;;;;;13.63;9.25;;;11.90;99.90;;;;;;5048758;28;20517;-81
2022/04/13 02:30:05;;;;;;;14.43;10.00;;;11.80;99.90;;;;;;5030956;28;20025;-81
2022/04/13 02:32:31;;;;;;;14.65;10.57;;;11.80;99.90;;;;;;5032929;28;20463;-81
2022/04/13 02:34:57;;;;;;;18.70;10.07;;;11.80;99.90;;;;;;5050503;28;20186;-81
2022/04/13 02:37:22;;;;;;;19.92;10.63;;;11.80;99.90;;;;;;5031122;28;20052;-81
2022/04/13 02:39:48;;;;;;;16.48;10.73;;;11.90;99.90;;;;;;5043904;28;20045;-81
2022/04/13 02:42:15;;;;;;;21.15;11.10;;;11.80;99.90;;;;;;5046463;28;20141;-81
2022/04/13 02:44:43;;;;;;;20.50;10.88;;;12.00;99.90;;;;;;5044874;28;20045;-81
2022/04/13 02:47:09;;;;;;;22.30;11.23;;;11.80;99.90;;;;;;5027432;28;20063;-81
2022/04/13 02:49:35;;;;;;;18.08;11.48;;;11.90;99.90;;;;;;5029520;28;20452;-81
2022/04/13 02:52:01;;;;;;;16.50;10.52;;;11.80;99.90;;;;;;5043930;28;20045;-81
2022/04/13 02:54:27;;;;;;;21.38;11.45;;;11.80;99.90;;;;;;5047984;28;20043;-81
2022/04/13 02:56:52;;;;;;;18.35;11.35;;;12.00;99.90;;;;;;5049049;28;20041;-80
2022/04/13 02:59:18;;;;;;;20.77;12.43;;;11.80;99.90;;;;;;5041791;28;20080;-80
2022/04/13 03:01:44;;;;;;;18.52;11.82;;;11.90;99.90;;;;;;5039291;28;20120;-79
2022/04/13 03:04:10;;;;;;;20.20;11.27;;;11.70;99.90;;;;;;5029362;28;20040;-79
2022/04/13 03:06:36;;;;;;;19.23;11.43;;;11.60;99.90;;;;;;5048017;28;20037;-80
2022/04/13 03:09:03;;;;;;;21.55;12.80;;;11.60;99.90;;;;;;5045569;28;20090;-80
2022/04/13 03:11:29;;;;;;;23.98;12.27;;;11.60;99.90;;;;;;5046972;28;20045;-80
2022/04/13 03:13:56;;;;;;;18.30;12.38;;;11.60;99.90;;;;;;5043248;28;20082;-80
2022/04/13 03:16:22;;;;;;;19.60;13.13;;;11.70;99.90;;;;;;5029652;28;20036;-81
2022/04/13 03:18:48;;;;;;;21.40;13.07;;;11.50;99.90;;;;;;5030512;28;20153;-80
2022/04/13 03:21:14;;;;;;;20.15;13.05;;;11.50;99.90;;;;;;5029884;28;20520;-80
2022/04/13 03:23:40;;;;;;;20.30;12.80;;;11.50;99.90;;;;;;5031435;28;20032;-80
2022/04/13 03:26:07;;;;;;;21.85;13.35;;;12.00;99.90;;;;;;5031404;28;20369;-81
2022/04/13 03:28:33;;;;;;;23.65;13.45;;;11.50;99.90;;;;;;5039293;28;20045;-81
2022/04/13 03:30:59;;;;;;;23.92;13.65;;;11.50;99.90;;;;;;5025887;28;20049;-80
2022/04/13 03:33:25;;;;;;;25.45;12.85;;;11.50;99.90;;;;;;5047811;28;20113;-80
2022/04/13 03:35:51;;;;;;;25.45;14.10;;;11.80;99.90;;;;;;5049912;28;20051;-80
2022/04/13 03:38:17;;;;;;;23.65;14.30;;;11.40;99.90;;;;;;5029782;28;20479;-79
2022/04/13 03:40:43;;;;;;;31.13;15.05;;;11.40;99.90;;;;;;5069417;28;20063;-80
2022/04/13 03:43:09;;;;;;;26.95;14.82;;;11.40;99.90;;;;;;5051596;28;20080;-80
2022/04/13 03:45:35;;;;;;;28.40;14.80;;;11.80;99.90;;;;;;5052732;28;20043;-81
2022/04/13 03:48:00;;;;;;;25.00;14.80;;;11.40;99.90;;;;;;5033568;28;20140;-80
2022/04/13 03:50:26;;;;;;;26.98;14.50;;;11.40;99.90;;;;;;5036223;28;20066;-80
2022/04/13 03:52:52;;;;;;;23.65;14.77;;;12.00;99.90;;;;;;5052747;28;20037;-80
2022/04/13 03:55:22;;;;;;;20.58;14.65;;;11.40;99.90;;;;;;5036684;28;20037;-80
2022/04/13 03:57:51;;;;;;;24.98;14.57;;;11.30;99.90;;;;;;5037032;28;20072;-81
2022/04/13 04:00:18;;;;;;;25.73;15.13;;;11.30;99.90;;;;;;5030340;28;20041;-80
2022/04/13 04:02:44;;;;;;;23.25;14.38;;;11.80;99.90;;;;;;5052551;28;20439;-82
2022/04/13 04:05:10;;;;;;;23.40;14.77;;;11.20;99.90;;;;;;5037503;28;20045;-80
2022/04/13 04:07:37;;;;;;;29.38;15.57;;;11.30;99.90;;;;;;5070545;28;20499;-80
2022/04/13 04:10:04;;;;;;;27.35;15.70;;;11.60;99.90;;;;;;5052210;28;20036;-80
2022/04/13 04:12:39;;;;;;;29.13;15.70;;;11.10;99.90;;;;;;5049598;28;20054;-80
2022/04/13 04:15:05;;;;;;;24.80;15.80;;;11.20;99.90;;;;;;5070107;28;20041;-80
2022/04/13 04:17:31;;;;;;;23.55;15.55;;;11.20;99.90;;;;;;5038841;28;20370;-80
2022/04/13 04:19:59;;;;;;;24.25;14.85;;;11.20;99.90;;;;;;5050753;28;20223;-81
2022/04/13 04:22:25;;;;;;;20.95;15.60;;;11.20;99.90;;;;;;5036502;28;20204;-80
2022/04/13 04:24:51;;;;;;;29.42;15.75;;;11.20;99.90;;;;;;5035193;28;20479;-80
2022/04/13 04:27:17;;;;;;;22.83;15.02;;;11.20;99.90;;;;;;5054123;28;20037;-80
2022/04/13 04:29:43;;;;;;;26.20;15.65;;;11.20;99.90;;;;;;5035898;28;20035;-80
2022/04/13 04:32:08;;;;;;;27.95;16.15;;;11.60;99.90;;;;;;5058258;28;20589;-79
2022/04/13 04:34:34;;;;;;;26.20;15.55;;;11.50;99.90;;;;;;5059305;28;20047;-80
2022/04/13 04:37:00;;;;;;;30.98;15.23;;;11.20;99.90;;;;;;5037099;28;20051;-81
2022/04/13 04:39:26;;;;;;;25.08;14.95;;;11.20;99.90;;;;;;5049716;28;20118;-81
2022/04/13 04:41:52;;;;;;;23.45;15.35;;;11.10;99.90;;;;;;5035069;28;20044;-81
2022/04/13 04:44:18;;;;;;;26.60;16.05;;;11.20;99.90;;;;;;5053204;28;20044;-81
2022/04/13 04:46:43;;;;;;;25.75;15.30;;;11.20;99.90;;;;;;5031848;28;20048;-81
2022/04/13 04:49:09;;;;;;;28.33;15.43;;;11.20;99.90;;;;;;5050823;28;20075;-81
2022/04/13 04:51:35;;;;;;;23.25;15.98;;;11.20;99.90;;;;;;5036443;28;20434;-81
2022/04/13 04:54:01;;;;;;;24.15;15.60;;;11.20;99.90;;;;;;5035321;28;20029;-81
2022/04/13 04:56:27;;;;;;;28.05;15.98;;;11.30;99.90;;;;;;5036823;28;20048;-88
2022/04/13 04:58:53;;;;;;;27.23;16.63;;;11.20;99.90;;;;;;5051448;28;20071;-83
2022/04/13 05:01:19;;;;;;;28.33;15.40;;;11.20;99.90;;;;;;5051892;28;20085;-82
2022/04/13 05:07:07;;;;;;;24.58;16.63;;;11.30;99.90;;;;;;5050645;28;20052;-82
2022/04/13 05:09:32;;;;;;;30.05;17.48;;;11.70;99.90;;;;;;5034870;28;20033;-82
2022/04/13 05:11:58;;;;;;;26.92;16.80;;;11.40;99.90;;;;;;5036733;28;20133;-83
2022/04/13 05:14:25;;;;;;;29.85;16.85;;;11.40;99.90;;;;;;5051132;28;20119;-84
2022/04/13 05:16:50;;;;;;;27.50;16.65;;;11.60;99.90;;;;;;5035510;28;20028;-81
2022/04/13 05:19:16;;;;;;;27.75;17.00;;;11.50;99.90;;;;;;5028822;28;20422;-82
2022/04/13 05:21:45;;;;;;;31.83;16.73;;;11.50;99.90;;;;;;5037695;28;20055;-82
2022/04/13 05:24:10;;;;;;;28.42;16.80;;;11.80;99.90;;;;;;5031994;28;20159;-81
2022/04/13 05:26:37;;;;;;;28.33;16.63;;;11.90;99.90;;;;;;5030979;28;20494;-83
2022/04/13 05:29:02;;;;;;;26.13;16.35;;;11.70;99.90;;;;;;5068631;28;20121;-83
2022/04/13 05:31:29;;;;;;;29.20;16.27;;;11.70;99.90;;;;;;5052708;28;20120;-83
2022/04/13 05:33:55;;;;;;;33.67;16.90;;;12.30;99.90;;;;;;5050255;28;20044;-82
2022/04/13 05:36:21;;;;;;;29.95;16.45;;;11.70;99.90;;;;;;5035986;28;20048;-81
2022/04/13 05:38:47;;;;;;;35.22;16.52;;;11.70;99.90;;;;;;5066519;28;20052;-80
2022/04/13 05:41:13;;;;;;;28.75;16.92;;;11.70;99.90;;;;;;5051851;28;20040;-82
2022/04/13 05:43:38;;;;;;;33.70;17.13;;;11.90;99.90;;;;;;5031738;28;20128;-83
2022/04/13 05:46:04;;;;;;;27.13;16.40;;;11.80;99.90;;;;;;5050997;28;20055;-82
2022/04/13 05:48:30;;;;;;;25.83;15.35;;;11.70;99.90;;;;;;5050283;28;20040;-81
2022/04/13 05:50:59;;;;;;;30.17;16.88;;;11.80;99.90;;;;;;5028552;28;20148;-80
2022/04/13 05:53:24;;;;;;;27.85;16.75;;;11.80;99.90;;;;;;5067601;28;20047;-80
2022/04/13 05:55:55;;;;;;;34.92;16.17;;;11.90;99.90;;;;;;5051066;28;20044;-81
2022/04/13 05:58:26;;;;;;;34.83;17.60;;;12.30;99.90;;;;;;5031327;28;20040;-81
2022/04/13 06:00:53;;;;;;;28.60;16.10;;;11.90;99.90;;;;;;5029338;28;20044;-80
2022/04/13 06:03:19;;;;;;;27.30;16.60;;;12.30;99.90;;;;;;5050329;28;20374;-81
2022/04/13 06:05:45;;;;;;;32.70;16.35;;;12.80;99.90;;;;;;5030696;28;20055;-81
2022/04/13 06:08:11;;;;;;;31.10;16.92;;;12.10;99.90;;;;;;5065105;28;20334;-80
2022/04/13 06:10:37;;;;;;;31.77;17.80;;;12.50;99.90;;;;;;5034527;28;20067;-82
2022/04/13 06:13:03;;;;;;;32.33;16.77;;;12.20;99.90;;;;;;5050902;28;20114;-81
2022/04/13 06:15:28;;;;;;;32.85;17.77;;;12.30;99.90;;;;;;5052241;28;20517;-82
2022/04/13 06:17:55;;;;;;;31.60;17.67;;;12.20;99.90;;;;;;5036258;28;20432;-82
2022/04/13 06:20:22;;;;;;;30.40;17.38;;;12.30;99.90;;;;;;5047879;28;20044;-80
2022/04/13 06:22:47;;;;;;;30.70;17.35;;;12.30;99.90;;;;;;5036131;28;20045;-83
2022/04/13 06:25:13;;;;;;;31.40;17.23;;;12.30;99.90;;;;;;5048884;28;20037;-82
2022/04/13 06:27:44;;;;;;;31.10;16.65;;;12.40;99.90;;;;;;5042954;28;20048;-82
2022/04/13 06:30:11;;;;;;;34.15;17.55;;;12.50;99.90;;;;;;5047880;28;20579;-81
2022/04/13 06:32:43;;;;;;;34.72;17.15;;;12.40;99.90;;;;;;5034244;28;20046;-81
2022/04/13 06:35:16;;;;;;;34.10;18.17;;;12.50;99.90;;;;;;5032663;28;20154;-81
2022/04/13 06:37:44;;;;;;;31.73;17.13;;;12.50;99.90;;;;;;5029906;28;20055;-81
2022/04/13 06:40:11;;;;;;;27.70;17.17;;;12.70;99.90;;;;;;5033053;28;20131;-83
2022/04/13 06:42:38;;;;;;;33.42;17.83;;;12.70;99.90;;;;;;5047928;28;20048;-83
2022/04/13 06:45:13;;;;;;;38.28;18.40;;;12.70;99.90;;;;;;5035291;28;20484;-81
2022/04/13 06:47:40;;;;;;;33.70;18.17;;;12.80;99.90;;;;;;5048928;28;20059;-82
2022/04/13 06:50:07;;;;;;;28.58;17.45;;;12.80;99.90;;;;;;5068918;28;20036;-84
2022/04/13 06:52:34;;;;;;;30.23;17.25;;;13.00;99.90;;;;;;5033104;28;20037;-79
2022/04/13 06:55:00;;;;;;;28.15;17.50;;;13.00;99.90;;;;;;5052344;28;20135;-82
2022/04/13 06:57:25;;;;;;;30.52;17.00;;;13.30;99.90;;;;;;5052674;28;20131;-82
2022/04/13 06:59:51;;;;;;;28.40;16.00;;;13.30;99.90;;;;;;5031512;28;20056;-83
2022/04/13 07:02:17;;;;;;;33.22;16.38;;;13.40;99.90;;;;;;5052256;28;20048;-82
2022/04/13 07:04:42;;;;;;;29.02;16.55;;;13.50;99.90;;;;;;5051928;28;20048;-82
2022/04/13 07:07:08;;;;;;;28.52;16.33;;;13.60;99.90;;;;;;5051693;28;20620;-83
2022/04/13 07:09:34;;;;;;;31.38;16.25;;;13.70;99.90;;;;;;5049528;28;20041;-83
2022/04/13 07:12:00;;;;;;;30.60;16.60;;;13.70;99.90;;;;;;5065358;28;20082;-82
2022/04/13 07:14:26;;;;;;;34.78;16.40;;;13.70;99.90;;;;;;5046223;28;20048;-82
2022/04/13 07:16:52;;;;;;;30.70;16.25;;;13.80;99.90;;;;;;5070515;28;20032;-81
2022/04/13 07:19:17;;;;;;;23.67;16.55;;;13.80;99.90;;;;;;5033569;28;20053;-81
2022/04/13 07:21:43;;;;;;;25.35;15.35;;;13.80;99.90;;;;;;5054103;28;20032;-82
2022/04/13 07:24:10;;;;;;;29.38;15.18;;;13.80;99.90;;;;;;5054589;28;20060;-83
2022/04/13 07:26:37;;;;;;;28.63;15.35;;;14.00;99.90;;;;;;5072002;28;20056;-83
2022/04/13 07:29:03;;;;;;;24.58;14.70;;;13.90;99.90;;;;;;5074442;28;20123;-84
2022/04/13 07:31:29;;;;;;;29.10;14.43;;;13.90;99.90;;;;;;5075569;28;20036;-83
2022/04/13 07:33:56;;;;;;;25.75;13.05;;;14.20;99.90;;;;;;5032831;28;20053;-82
2022/04/13 07:36:22;;;;;;;21.95;13.38;;;14.30;99.90;;;;;;5054503;28;20128;-81
2022/04/13 07:38:50;;;;;;;49.08;15.23;;;14.40;99.90;;;;;;5053796;28;20172;-82
2022/04/13 07:41:16;;;;;;;50.33;15.35;;;14.40;99.90;;;;;;5070097;28;20052;-82
2022/04/13 07:43:43;;;;;;;68.88;16.13;;;14.60;99.90;;;;;;5069376;28;20098;-81
2022/04/13 07:46:09;;;;;;;27.30;13.07;;;14.50;99.90;;;;;;5053575;28;20045;-81
2022/04/13 07:48:35;;;;;;;32.38;13.15;;;14.50;99.90;;;;;;5055368;28;20135;-82
2022/04/13 07:51:01;;;;;;;31.73;13.65;;;14.50;99.90;;;;;;5053862;28;20119;-82
2022/04/13 07:53:26;;;;;;;27.95;13.82;;;14.50;99.90;;;;;;5055469;28;20048;-83
2022/04/13 07:55:52;;;;;;;27.63;14.10;;;14.60;99.90;;;;;;5056166;28;20084;-83
2022/04/13 07:58:18;;;;;;;25.55;13.27;;;14.50;99.90;;;;;;5038231;28;20070;-83
2022/04/13 08:00:44;;;;;;;25.92;13.35;;;14.60;99.90;;;;;;5055777;28;20055;-83
2022/04/13 08:03:09;;;;;;;29.50;14.23;;;14.60;99.90;;;;;;5055863;28;20057;-84
2022/04/13 08:05:40;;;;;;;30.38;14.85;;;14.70;99.90;;;;;;5056066;28;20058;-84
2022/04/13 08:08:05;;;;;;;25.05;12.38;;;15.00;99.90;;;;;;5038356;28;20141;-84
2022/04/13 08:10:31;;;;;;;22.83;12.40;;;14.90;99.90;;;;;;5074196;28;20131;-81
2022/04/13 08:12:57;;;;;;;33.50;12.23;;;14.90;99.90;;;;;;5063307;28;20028;-82
2022/04/13 08:15:24;;;;;;;36.85;13.85;;;14.90;99.90;;;;;;5062000;28;20028;-80
2022/04/13 08:17:50;;;;;;;53.90;15.15;;;15.10;99.90;;;;;;5078646;28;20132;-82
2022/04/13 08:20:19;;;;;;;25.60;11.82;;;15.20;99.90;;;;;;5062931;28;20422;-82
2022/04/13 08:22:46;;;;;;;24.75;11.93;;;15.30;99.90;;;;;;5097385;28;20037;-82
2022/04/13 08:25:15;;;;;;;20.45;11.82;;;15.30;99.90;;;;;;5073870;28;20033;-83
2022/04/13 08:27:41;;;;;;;20.90;11.15;;;15.50;99.90;;;;;;5031171;28;20053;-83
2022/04/13 08:30:07;;;;;;;19.40;11.32;;;15.60;99.90;;;;;;5055126;28;20482;-83
2022/04/13 08:32:33;;;;;;;32.65;12.52;;;15.70;99.90;;;;;;5038751;28;20045;-83
2022/04/13 08:34:58;;;;;;;38.92;12.40;;;15.70;99.90;;;;;;5038048;28;20143;-83
2022/04/13 08:37:25;;;;;;;33.60;12.13;;;15.70;99.90;;;;;;5070219;28;20052;-82
2022/04/13 08:39:51;;;;;;;34.25;11.93;;;15.70;99.90;;;;;;5074156;28;20055;-82
2022/04/13 08:42:29;;;;;;;52.70;12.98;;;15.80;99.90;;;;;;5067098;28;20052;-83
2022/04/13 08:44:55;;;;;;;26.77;11.75;;;15.80;99.90;;;;;;5072058;28;20459;-82
2022/04/13 08:47:23;;;;;;;25.20;10.85;;;15.60;99.90;;;;;;5055109;28;20047;-82
2022/04/13 08:49:52;;;;;;;19.25;10.27;;;15.90;99.90;;;;;;5036239;28;20500;-82
2022/04/13 08:52:24;;;;;;;19.40;9.65;;;15.90;99.90;;;;;;5037566;28;20052;-83
2022/04/13 08:55:11;;;;;;;24.38;10.10;;;16.00;99.90;;;;;;5071335;28;20036;-84
2022/04/13 08:57:49;;;;;;;23.25;11.20;;;16.00;99.90;;;;;;5028693;28;20428;-83
2022/04/13 09:00:19;;;;;;;20.55;10.02;;;16.20;99.90;;;;;;5042365;28;20053;-82
2022/04/13 09:02:48;;;;;;;17.10;9.80;;;16.20;99.90;;;;;;5037327;28;20052;-84
2022/04/13 09:05:34;;;;;;;21.20;9.95;;;16.30;99.90;;;;;;5053044;28;20133;-82
2022/04/13 09:08:05;;;;;;;19.33;9.52;;;16.40;99.90;;;;;;5036820;28;20420;-82
2022/04/13 09:10:31;;;;;;;20.48;9.95;;;16.20;99.90;;;;;;5053536;28;20049;-83
2022/04/13 09:12:58;;;;;;;17.00;8.95;;;16.20;99.90;;;;;;5069122;28;20048;-85
2022/04/13 09:15:24;;;;;;;18.95;8.65;;;16.10;99.90;;;;;;5046917;28;20044;-83
2022/04/13 09:17:51;;;;;;;15.07;7.20;;;16.10;99.90;;;;;;5045080;28;20045;-82
2022/04/13 09:20:17;;;;;;;14.32;7.63;;;16.10;99.90;;;;;;5050078;28;20238;-82
2022/04/13 09:22:43;;;;;;;16.92;7.40;;;16.20;99.90;;;;;;5047233;28;20096;-82
2022/04/13 09:25:10;;;;;;;15.38;7.38;;;16.10;99.90;;;;;;5048724;28;20129;-83
2022/04/13 09:27:37;;;;;;;21.40;7.75;;;16.20;99.90;;;;;;5032884;28;20045;-82
2022/04/13 09:30:05;;;;;;;13.93;7.88;;;16.10;99.90;;;;;;5033689;28;20041;-82
2022/04/13 09:32:31;;;;;;;21.65;7.75;;;16.10;99.90;;;;;;5033594;28;20133;-81
2022/04/13 09:34:58;;;;;;;15.63;8.15;;;16.20;99.90;;;;;;5067255;28;20134;-83
2022/04/13 09:37:24;;;;;;;17.48;8.25;;;16.10;99.90;;;;;;5050967;28;20048;-81
2022/04/13 09:39:53;;;;;;;18.77;7.15;;;16.20;99.90;;;;;;5035629;28;20045;-81
2022/04/13 09:42:20;;;;;;;16.38;7.70;;;16.40;99.90;;;;;;5033734;28;20538;-80
2022/04/13 09:44:55;;;;;;;13.80;7.25;;;16.40;99.90;;;;;;5049941;28;20105;-80
2022/04/13 09:47:20;;;;;;;16.50;7.35;;;16.40;99.90;;;;;;5035879;28;20037;-80
2022/04/13 09:49:53;;;;;;;16.80;7.45;;;16.50;99.90;;;;;;5050967;28;20047;-80
2022/04/13 09:52:26;;;;;;;14.13;6.90;;;16.30;99.90;;;;;;5032815;28;20534;-85
2022/04/13 09:54:52;;;;;;;15.45;6.55;;;16.40;99.90;;;;;;5035247;28;20119;-81
2022/04/13 09:57:22;;;;;;;10.48;4.57;;;16.50;99.90;;;;;;5068647;28;20060;-82
2022/04/13 09:59:54;;;;;;;18.02;7.25;;;16.90;99.90;;;;;;5047785;28;20395;-83
2022/04/13 10:02:36;;;;;;;14.10;6.75;;;16.70;99.90;;;;;;5031307;28;20049;-81
2022/04/13 10:05:04;;;;;;;17.10;7.35;;;16.80;99.90;;;;;;5029528;28;20392;-82
2022/04/13 10:07:30;;;;;;;14.70;6.47;;;16.90;99.90;;;;;;5067542;28;20044;-81
2022/04/13 10:09:55;;;;;;;11.93;6.32;;;16.80;99.90;;;;;;5047786;28;20186;-79
2022/04/13 10:12:21;;;;;;;16.98;6.57;;;16.90;99.90;;;;;;5050084;28;20041;-81
2022/04/13 10:14:47;;;;;;;14.55;6.65;;;17.00;99.90;;;;;;5034572;28;20036;-84
2022/04/13 10:17:33;;;;;;;21.48;6.88;;;17.20;99.90;;;;;;5037230;28;20589;-85
2022/04/13 10:19:59;;;;;;;15.43;5.15;;;17.40;99.90;;;;;;5035510;28;20052;-82
2022/04/13 10:22:25;;;;;;;10.82;5.35;;;17.50;99.90;;;;;;5034581;28;20387;-84
2022/04/13 10:24:50;;;;;;;13.38;4.88;;;17.60;99.90;;;;;;5066284;28;20048;-81
2022/04/13 10:27:18;;;;;;;8.88;5.00;;;17.90;99.90;;;;;;5035689;28;20033;-81
2022/04/13 10:29:48;;;;;;;10.07;3.90;;;18.00;99.90;;;;;;5050800;28;20063;-86
2022/04/13 10:32:15;;;;;;;11.20;4.90;;;18.00;99.90;;;;;;5032565;28;20087;-81
2022/04/13 10:34:49;;;;;;;12.00;4.43;;;18.10;99.90;;;;;;5029407;28;20049;-79
2022/04/13 10:37:18;;;;;;;9.00;4.40;;;18.20;99.90;;;;;;5046305;28;20398;-79
2022/04/13 10:39:47;;;;;;;10.18;4.20;;;18.50;99.90;;;;;;5029507;28;20044;-80
2022/04/13 10:42:15;;;;;;;7.85;4.50;;;18.70;99.90;;;;;;5030742;28;20048;-80
2022/04/13 10:44:51;;;;;;;14.30;4.43;;;18.80;99.90;;;;;;5047773;28;20064;-81
2022/04/13 10:47:18;;;;;;;11.63;4.70;;;18.70;99.90;;;;;;5065912;28;20052;-83
2022/04/13 10:49:56;;;;;;;11.55;4.68;;;18.60;99.90;;;;;;5042628;28;20059;-80
2022/04/13 10:52:34;;;;;;;8.80;4.90;;;18.50;99.90;;;;;;5046731;28;20040;-79
2022/04/13 10:55:10;;;;;;;11.25;4.68;;;18.80;99.90;;;;;;5034026;28;20432;-83
2022/04/13 10:57:41;;;;;;;8.32;4.85;;;19.40;99.90;;;;;;5022737;28;20052;-82
2022/04/13 11:00:15;;;;;;;10.95;4.20;;;19.60;99.90;;;;;;5076484;28;20119;-82
2022/04/13 11:02:49;;;;;;;8.73;4.00;;;19.80;99.90;;;;;;5077460;28;20036;-83
2022/04/13 11:05:15;;;;;;;9.23;4.07;;;20.20;99.90;;;;;;5041804;28;20043;-82
2022/04/13 11:07:41;;;;;;;6.13;3.63;;;20.50;99.90;;;;;;5042227;28;20428;-82
2022/04/13 11:10:19;;;;;;;9.75;3.80;;;20.50;99.90;;;;;;5058948;28;20063;-82
2022/04/13 11:12:46;;;;;;;10.25;3.95;;;20.30;99.90;;;;;;5059055;28;20079;-82
2022/04/13 11:15:14;;;;;;;10.95;4.13;;;20.10;99.90;;;;;;5042351;28;20061;-82
2022/04/13 11:17:41;;;;;;;10.25;5.07;;;19.90;99.90;;;;;;5040156;28;20033;-82
2022/04/13 11:20:21;;;;;;;9.77;4.28;;;19.50;99.90;;;;;;5041344;28;20052;-82
2022/04/13 11:23:12;;;;;;;9.02;4.50;;;19.20;99.90;;;;;;5059258;28;20119;-82
2022/04/13 11:25:49;;;;;;;9.75;4.45;;;19.30;99.90;;;;;;5059117;28;20118;-82
2022/04/13 11:28:26;;;;;;;11.95;5.43;;;19.00;99.90;;;;;;5058239;28;20144;-82
2022/04/13 11:31:04;;;;;;;13.35;5.28;;;19.20;99.90;;;;;;5057106;28;20506;-81
2022/04/13 11:33:49;;;;;;;15.27;5.18;;;19.20;99.90;;;;;;5058796;28;20055;-82
2022/04/13 11:36:15;;;;;;;40.95;6.05;;;19.10;99.90;;;;;;5058068;28;20040;-81
2022/04/13 11:38:53;;;;;;;10.70;5.45;;;19.20;99.90;;;;;;5077418;28;20049;-82
2022/04/13 11:41:20;;;;;;;11.55;5.60;;;19.00;99.90;;;;;;5047223;28;20451;-82
2022/04/13 11:43:49;;;;;;;14.40;6.22;;;18.80;99.90;;;;;;5056889;28;20393;-82
2022/04/13 11:46:38;;;;;;;14.90;5.65;;;18.80;99.90;;;;;;5038812;28;20048;-82
2022/04/13 11:49:09;;;;;;;15.25;4.90;;;18.70;99.90;;;;;;5033400;28;20056;-81
2022/04/13 11:51:35;;;;;;;16.13;3.90;;;18.40;99.90;;;;;;5042447;28;20044;-82
2022/04/13 11:54:10;;;;;;;8.18;3.25;;;18.20;99.90;;;;;;5077822;28;20417;-82
2022/04/13 11:56:38;;;;;;;8.98;2.83;;;18.20;99.90;;;;;;5040905;28;20040;-82
2022/04/13 11:59:06;;;;;;;8.02;2.67;;;18.20;99.90;;;;;;5058130;28;20068;-82
2022/04/13 12:01:33;;;;;;;9.90;3.03;;;18.20;99.90;;;;;;5058381;28;20135;-82
2022/04/13 12:04:03;;;;;;;11.80;3.30;;;18.10;99.90;;;;;;5037927;28;20052;-82
2022/04/13 12:06:30;;;;;;;12.00;3.65;;;18.20;99.90;;;;;;5055852;28;20051;-81
2022/04/13 12:08:58;;;;;;;10.35;3.60;;;18.00;99.90;;;;;;5055350;28;20040;-82
2022/04/13 12:11:40;;;;;;;10.85;3.85;;;17.90;99.90;;;;;;5055361;28;20482;-82
2022/04/13 12:14:06;;;;;;;14.02;3.97;;;17.80;99.90;;;;;;5037810;28;20118;-82
2022/04/13 12:16:33;;;;;;;16.67;3.70;;;17.90;99.90;;;;;;5055253;28;20044;-82
2022/04/13 12:19:02;;;;;;;11.70;3.75;;;17.90;99.90;;;;;;5036394;28;20056;-81
2022/04/13 12:21:30;;;;;;;8.55;3.33;;;17.70;99.90;;;;;;5055477;28;20048;-81
2022/04/13 12:23:56;;;;;;;8.77;3.08;;;17.70;99.90;;;;;;5073236;28;20045;-82
2022/04/13 12:26:45;;;;;;;13.88;3.60;;;17.70;99.90;;;;;;5054462;28;20521;-82
2022/04/13 12:29:17;;;;;;;13.75;3.72;;;17.60;99.90;;;;;;5037553;28;20055;-81
2022/04/13 12:31:48;;;;;;;12.20;3.70;;;17.60;99.90;;;;;;5038614;28;20102;-82
2022/04/13 12:34:16;;;;;;;26.38;4.82;;;17.60;99.90;;;;;;5037624;28;20068;-82
2022/04/13 12:36:42;;;;;;;16.85;5.25;;;17.60;99.90;;;;;;5054637;28;20052;-81
2022/04/13 12:39:12;;;;;;;11.43;4.80;;;17.50;99.90;;;;;;5054147;28;20059;-81
2022/04/13 12:41:38;;;;;;;18.27;5.10;;;17.60;99.90;;;;;;5037057;28;20067;-82
2022/04/13 12:44:04;;;;;;;9.82;4.45;;;17.50;99.90;;;;;;5053772;28;20052;-81